sensor_id;sensor_type;location;lat;lon;timestamp;P1;durP1;ratioP1;P2;durP2;ratioP2
3081;SDS011;1551;51.046;7.010;2023-06-14T00:01:23;6.45;;;4.90;;
3081;SDS011;1551;51.046;7.010;2023-06-14T00:04:13;7.30;;;4.75;;
3081;SDS011;1551;51.046;7.010;2023-06-14T00:07:02;5.20;;;4.70;;
3081;SDS011;1551;51.046;7.010;2023-06-14T00:09:52;6.03;;;4.80;;
3081;SDS011;1551;51.046;7.010;2023-06-14T00:12:41;6.22;;;4.70;;
3081;SDS011;1551;51.046;7.010;2023-06-14T00:15:33;6.25;;;5.00;;
3081;SDS011;1551;51.046;7.010;2023-06-14T00:18:22;5.90;;;4.90;;
3081;SDS011;1551;51.046;7.010;2023-06-14T00:21:18;6.13;;;4.80;;
3081;SDS011;1551;51.046;7.010;2023-06-14T00:24:08;5.93;;;4.95;;
3081;SDS011;1551;51.046;7.010;2023-06-14T00:26:57;6.30;;;5.10;;
3081;SDS011;1551;51.046;7.010;2023-06-14T00:29:45;5.10;;;4.55;;
3081;SDS011;1551;51.046;7.010;2023-06-14T00:32:35;5.97;;;4.88;;
3081;SDS011;1551;51.046;7.010;2023-06-14T00:35:23;6.50;;;5.53;;
3081;SDS011;1551;51.046;7.010;2023-06-14T00:38:12;7.00;;;5.23;;
3081;SDS011;1551;51.046;7.010;2023-06-14T00:41:03;4.90;;;4.40;;
3081;SDS011;1551;51.046;7.010;2023-06-14T00:43:52;5.60;;;4.68;;
3081;SDS011;1551;51.046;7.010;2023-06-14T00:46:47;5.10;;;4.57;;
3081;SDS011;1551;51.046;7.010;2023-06-14T00:49:37;6.80;;;4.90;;
3081;SDS011;1551;51.046;7.010;2023-06-14T00:52:26;5.80;;;4.88;;
3081;SDS011;1551;51.046;7.010;2023-06-14T00:55:16;7.60;;;4.75;;
3081;SDS011;1551;51.046;7.010;2023-06-14T00:58:06;5.30;;;4.70;;
3081;SDS011;1551;51.046;7.010;2023-06-14T01:00:55;5.30;;;4.53;;
3081;SDS011;1551;51.046;7.010;2023-06-14T01:03:45;7.00;;;5.00;;
3081;SDS011;1551;51.046;7.010;2023-06-14T01:13:31;5.10;;;4.60;;
3081;SDS011;1551;51.046;7.010;2023-06-14T01:16:22;5.65;;;4.28;;
3081;SDS011;1551;51.046;7.010;2023-06-14T01:19:12;6.23;;;4.70;;
3081;SDS011;1551;51.046;7.010;2023-06-14T01:22:03;7.77;;;5.47;;
3081;SDS011;1551;51.046;7.010;2023-06-14T01:24:53;5.65;;;5.05;;
3081;SDS011;1551;51.046;7.010;2023-06-14T01:27:43;6.90;;;5.00;;
3081;SDS011;1551;51.046;7.010;2023-06-14T01:30:32;6.60;;;5.00;;
3081;SDS011;1551;51.046;7.010;2023-06-14T01:33:24;6.95;;;4.50;;
3081;SDS011;1551;51.046;7.010;2023-06-14T01:36:16;6.00;;;4.95;;
3081;SDS011;1551;51.046;7.010;2023-06-14T01:39:07;5.80;;;4.53;;
3081;SDS011;1551;51.046;7.010;2023-06-14T01:41:57;5.57;;;4.72;;
3081;SDS011;1551;51.046;7.010;2023-06-14T01:44:47;5.43;;;4.30;;
3081;SDS011;1551;51.046;7.010;2023-06-14T01:47:37;5.95;;;4.50;;
3081;SDS011;1551;51.046;7.010;2023-06-14T01:50:29;5.65;;;4.53;;
3081;SDS011;1551;51.046;7.010;2023-06-14T01:53:20;6.15;;;4.25;;
3081;SDS011;1551;51.046;7.010;2023-06-14T01:56:09;5.60;;;4.20;;
3081;SDS011;1551;51.046;7.010;2023-06-14T01:58:58;6.00;;;4.70;;
3081;SDS011;1551;51.046;7.010;2023-06-14T02:01:47;5.90;;;4.40;;
3081;SDS011;1551;51.046;7.010;2023-06-14T02:04:36;5.28;;;4.22;;
3081;SDS011;1551;51.046;7.010;2023-06-14T02:07:25;6.07;;;4.40;;
3081;SDS011;1551;51.046;7.010;2023-06-14T02:10:14;5.78;;;4.57;;
3081;SDS011;1551;51.046;7.010;2023-06-14T02:13:03;8.30;;;4.47;;
3081;SDS011;1551;51.046;7.010;2023-06-14T02:15:52;5.88;;;4.47;;
3081;SDS011;1551;51.046;7.010;2023-06-14T02:18:44;7.30;;;4.30;;
3081;SDS011;1551;51.046;7.010;2023-06-14T02:21:33;4.20;;;3.67;;
3081;SDS011;1551;51.046;7.010;2023-06-14T02:24:23;4.13;;;3.70;;
3081;SDS011;1551;51.046;7.010;2023-06-14T02:27:12;13.60;;;4.35;;
3081;SDS011;1551;51.046;7.010;2023-06-14T02:30:02;6.90;;;4.40;;
3081;SDS011;1551;51.046;7.010;2023-06-14T02:32:51;4.40;;;3.97;;
3081;SDS011;1551;51.046;7.010;2023-06-14T02:35:42;5.38;;;4.25;;
3081;SDS011;1551;51.046;7.010;2023-06-14T02:38:31;5.55;;;4.10;;
3081;SDS011;1551;51.046;7.010;2023-06-14T02:41:20;5.13;;;4.40;;
3081;SDS011;1551;51.046;7.010;2023-06-14T02:44:09;4.63;;;3.65;;
3081;SDS011;1551;51.046;7.010;2023-06-14T02:47:00;5.50;;;4.17;;
3081;SDS011;1551;51.046;7.010;2023-06-14T02:49:49;4.53;;;3.87;;
3081;SDS011;1551;51.046;7.010;2023-06-14T02:52:39;6.47;;;4.40;;
3081;SDS011;1551;51.046;7.010;2023-06-14T02:55:31;7.00;;;4.70;;
3081;SDS011;1551;51.046;7.010;2023-06-14T02:58:20;7.85;;;4.75;;
3081;SDS011;1551;51.046;7.010;2023-06-14T03:01:10;7.43;;;4.60;;
3081;SDS011;1551;51.046;7.010;2023-06-14T03:04:02;5.65;;;4.43;;
3081;SDS011;1551;51.046;7.010;2023-06-14T03:06:53;6.35;;;4.30;;
3081;SDS011;1551;51.046;7.010;2023-06-14T03:09:43;6.00;;;4.30;;
3081;SDS011;1551;51.046;7.010;2023-06-14T03:12:34;5.57;;;4.50;;
3081;SDS011;1551;51.046;7.010;2023-06-14T03:15:24;5.75;;;4.25;;
3081;SDS011;1551;51.046;7.010;2023-06-14T03:18:15;6.43;;;4.50;;
3081;SDS011;1551;51.046;7.010;2023-06-14T03:21:04;6.80;;;4.85;;
3081;SDS011;1551;51.046;7.010;2023-06-14T03:23:59;5.20;;;4.22;;
3081;SDS011;1551;51.046;7.010;2023-06-14T03:26:48;6.70;;;4.80;;
3081;SDS011;1551;51.046;7.010;2023-06-14T03:29:38;5.30;;;4.32;;
3081;SDS011;1551;51.046;7.010;2023-06-14T03:32:27;5.20;;;3.97;;
3081;SDS011;1551;51.046;7.010;2023-06-14T03:35:17;5.18;;;4.40;;
3081;SDS011;1551;51.046;7.010;2023-06-14T03:38:07;8.82;;;4.60;;
3081;SDS011;1551;51.046;7.010;2023-06-14T03:40:56;5.35;;;4.05;;
3081;SDS011;1551;51.046;7.010;2023-06-14T03:43:45;6.20;;;4.57;;
3081;SDS011;1551;51.046;7.010;2023-06-14T03:46:35;6.13;;;4.85;;
3081;SDS011;1551;51.046;7.010;2023-06-14T03:49:25;6.45;;;4.70;;
3081;SDS011;1551;51.046;7.010;2023-06-14T03:52:14;5.38;;;4.20;;
3081;SDS011;1551;51.046;7.010;2023-06-14T03:55:05;4.72;;;4.00;;
3081;SDS011;1551;51.046;7.010;2023-06-14T03:57:56;6.50;;;4.30;;
3081;SDS011;1551;51.046;7.010;2023-06-14T04:00:46;4.65;;;3.92;;
3081;SDS011;1551;51.046;7.010;2023-06-14T04:03:35;5.00;;;4.20;;
3081;SDS011;1551;51.046;7.010;2023-06-14T04:06:25;6.23;;;4.70;;
3081;SDS011;1551;51.046;7.010;2023-06-14T04:09:21;5.43;;;4.07;;
3081;SDS011;1551;51.046;7.010;2023-06-14T04:12:10;5.75;;;4.57;;
3081;SDS011;1551;51.046;7.010;2023-06-14T04:15:00;5.80;;;4.20;;
3081;SDS011;1551;51.046;7.010;2023-06-14T04:17:52;6.82;;;4.40;;
3081;SDS011;1551;51.046;7.010;2023-06-14T04:20:43;6.55;;;4.28;;
3081;SDS011;1551;51.046;7.010;2023-06-14T04:23:32;5.38;;;3.90;;
3081;SDS011;1551;51.046;7.010;2023-06-14T04:26:23;5.13;;;3.80;;
3081;SDS011;1551;51.046;7.010;2023-06-14T04:29:18;6.38;;;4.15;;
3081;SDS011;1551;51.046;7.010;2023-06-14T04:32:14;5.80;;;3.90;;
3081;SDS011;1551;51.046;7.010;2023-06-14T04:35:07;6.63;;;4.47;;
3081;SDS011;1551;51.046;7.010;2023-06-14T04:37:58;6.10;;;4.17;;
3081;SDS011;1551;51.046;7.010;2023-06-14T04:40:48;6.90;;;4.80;;
3081;SDS011;1551;51.046;7.010;2023-06-14T04:43:40;7.10;;;4.77;;
3081;SDS011;1551;51.046;7.010;2023-06-14T04:46:30;9.27;;;4.30;;
3081;SDS011;1551;51.046;7.010;2023-06-14T04:49:20;6.82;;;4.20;;
3081;SDS011;1551;51.046;7.010;2023-06-14T04:52:13;5.00;;;4.30;;
3081;SDS011;1551;51.046;7.010;2023-06-14T04:55:04;6.15;;;3.90;;
3081;SDS011;1551;51.046;7.010;2023-06-14T04:57:55;6.53;;;4.50;;
3081;SDS011;1551;51.046;7.010;2023-06-14T05:00:44;6.88;;;4.05;;
3081;SDS011;1551;51.046;7.010;2023-06-14T05:03:33;6.75;;;4.05;;
3081;SDS011;1551;51.046;7.010;2023-06-14T05:06:23;5.47;;;3.47;;
3081;SDS011;1551;51.046;7.010;2023-06-14T05:09:13;6.50;;;4.20;;
3081;SDS011;1551;51.046;7.010;2023-06-14T05:12:03;7.10;;;4.28;;
3081;SDS011;1551;51.046;7.010;2023-06-14T05:14:52;4.10;;;3.20;;
3081;SDS011;1551;51.046;7.010;2023-06-14T05:17:45;6.00;;;3.70;;
3081;SDS011;1551;51.046;7.010;2023-06-14T05:20:41;5.32;;;4.05;;
3081;SDS011;1551;51.046;7.010;2023-06-14T05:23:30;6.63;;;4.00;;
3081;SDS011;1551;51.046;7.010;2023-06-14T05:26:19;5.00;;;3.40;;
3081;SDS011;1551;51.046;7.010;2023-06-14T05:29:09;5.22;;;3.67;;
3081;SDS011;1551;51.046;7.010;2023-06-14T05:31:58;4.90;;;3.63;;
3081;SDS011;1551;51.046;7.010;2023-06-14T05:34:47;5.95;;;3.80;;
3081;SDS011;1551;51.046;7.010;2023-06-14T05:37:36;5.55;;;3.50;;
3081;SDS011;1551;51.046;7.010;2023-06-14T05:40:25;5.40;;;3.50;;
3081;SDS011;1551;51.046;7.010;2023-06-14T05:43:14;5.75;;;3.80;;
3081;SDS011;1551;51.046;7.010;2023-06-14T05:46:03;4.90;;;3.65;;
3081;SDS011;1551;51.046;7.010;2023-06-14T05:48:53;6.20;;;3.47;;
3081;SDS011;1551;51.046;7.010;2023-06-14T05:51:43;4.38;;;3.85;;
3081;SDS011;1551;51.046;7.010;2023-06-14T05:54:32;9.68;;;3.10;;
3081;SDS011;1551;51.046;7.010;2023-06-14T05:57:21;6.35;;;3.83;;
3081;SDS011;1551;51.046;7.010;2023-06-14T06:00:10;6.30;;;3.50;;
3081;SDS011;1551;51.046;7.010;2023-06-14T06:03:02;3.63;;;2.90;;
3081;SDS011;1551;51.046;7.010;2023-06-14T06:05:51;3.80;;;3.10;;
3081;SDS011;1551;51.046;7.010;2023-06-14T06:08:40;5.38;;;3.50;;
3081;SDS011;1551;51.046;7.010;2023-06-14T06:11:29;3.92;;;3.03;;
3081;SDS011;1551;51.046;7.010;2023-06-14T06:14:18;6.05;;;3.53;;
3081;SDS011;1551;51.046;7.010;2023-06-14T06:17:07;5.50;;;3.30;;
3081;SDS011;1551;51.046;7.010;2023-06-14T06:19:56;5.87;;;3.43;;
3081;SDS011;1551;51.046;7.010;2023-06-14T06:22:45;4.50;;;3.10;;
3081;SDS011;1551;51.046;7.010;2023-06-14T06:25:34;5.43;;;3.20;;
3081;SDS011;1551;51.046;7.010;2023-06-14T06:28:23;4.22;;;3.40;;
3081;SDS011;1551;51.046;7.010;2023-06-14T06:31:12;4.95;;;3.40;;
3081;SDS011;1551;51.046;7.010;2023-06-14T06:34:01;4.50;;;2.80;;
3081;SDS011;1551;51.046;7.010;2023-06-14T06:36:50;5.88;;;2.85;;
3081;SDS011;1551;51.046;7.010;2023-06-14T06:39:39;4.60;;;2.90;;
3081;SDS011;1551;51.046;7.010;2023-06-14T06:42:28;7.60;;;2.95;;
3081;SDS011;1551;51.046;7.010;2023-06-14T06:45:21;4.57;;;3.13;;
3081;SDS011;1551;51.046;7.010;2023-06-14T06:48:11;4.43;;;3.00;;
3081;SDS011;1551;51.046;7.010;2023-06-14T06:51:00;5.90;;;2.80;;
3081;SDS011;1551;51.046;7.010;2023-06-14T06:53:53;4.50;;;2.60;;
3081;SDS011;1551;51.046;7.010;2023-06-14T06:56:43;3.50;;;2.40;;
3081;SDS011;1551;51.046;7.010;2023-06-14T06:59:32;4.32;;;2.80;;
3081;SDS011;1551;51.046;7.010;2023-06-14T07:02:21;3.10;;;2.55;;
3081;SDS011;1551;51.046;7.010;2023-06-14T07:05:10;4.60;;;2.30;;
3081;SDS011;1551;51.046;7.010;2023-06-14T07:08:00;3.80;;;2.20;;
3081;SDS011;1551;51.046;7.010;2023-06-14T07:10:49;3.63;;;2.50;;
3081;SDS011;1551;51.046;7.010;2023-06-14T07:13:38;3.50;;;2.60;;
3081;SDS011;1551;51.046;7.010;2023-06-14T07:16:27;4.32;;;2.03;;
3081;SDS011;1551;51.046;7.010;2023-06-14T07:19:16;4.20;;;2.40;;
3081;SDS011;1551;51.046;7.010;2023-06-14T07:22:05;4.75;;;2.30;;
3081;SDS011;1551;51.046;7.010;2023-06-14T07:24:54;3.28;;;2.20;;
3081;SDS011;1551;51.046;7.010;2023-06-14T07:27:44;2.83;;;2.03;;
3081;SDS011;1551;51.046;7.010;2023-06-14T07:30:34;4.13;;;2.13;;
3081;SDS011;1551;51.046;7.010;2023-06-14T07:33:24;5.70;;;2.20;;
3081;SDS011;1551;51.046;7.010;2023-06-14T07:36:13;4.60;;;2.40;;
3081;SDS011;1551;51.046;7.010;2023-06-14T07:39:02;3.50;;;2.08;;
3081;SDS011;1551;51.046;7.010;2023-06-14T07:41:52;3.00;;;1.90;;
3081;SDS011;1551;51.046;7.010;2023-06-14T07:44:41;3.08;;;1.90;;
3081;SDS011;1551;51.046;7.010;2023-06-14T07:47:30;3.65;;;1.80;;
3081;SDS011;1551;51.046;7.010;2023-06-14T07:50:18;2.70;;;1.60;;
3081;SDS011;1551;51.046;7.010;2023-06-14T07:53:07;2.80;;;1.60;;
3081;SDS011;1551;51.046;7.010;2023-06-14T07:55:56;2.90;;;1.80;;
3081;SDS011;1551;51.046;7.010;2023-06-14T07:58:46;2.50;;;1.70;;
3081;SDS011;1551;51.046;7.010;2023-06-14T08:01:35;2.60;;;1.60;;
3081;SDS011;1551;51.046;7.010;2023-06-14T08:04:24;2.60;;;1.70;;
3081;SDS011;1551;51.046;7.010;2023-06-14T08:07:14;3.60;;;1.70;;
3081;SDS011;1551;51.046;7.010;2023-06-14T08:10:04;3.00;;;1.80;;
3081;SDS011;1551;51.046;7.010;2023-06-14T08:12:54;3.90;;;1.70;;
3081;SDS011;1551;51.046;7.010;2023-06-14T08:15:43;3.20;;;1.63;;
3081;SDS011;1551;51.046;7.010;2023-06-14T08:18:32;2.55;;;1.70;;
3081;SDS011;1551;51.046;7.010;2023-06-14T08:21:21;3.33;;;1.80;;
3081;SDS011;1551;51.046;7.010;2023-06-14T08:24:11;4.63;;;1.65;;
3081;SDS011;1551;51.046;7.010;2023-06-14T08:27:01;3.60;;;1.70;;
3081;SDS011;1551;51.046;7.010;2023-06-14T08:29:49;2.78;;;1.65;;
3081;SDS011;1551;51.046;7.010;2023-06-14T08:32:38;5.10;;;1.60;;
3081;SDS011;1551;51.046;7.010;2023-06-14T08:35:27;3.40;;;1.60;;
3081;SDS011;1551;51.046;7.010;2023-06-14T08:38:17;4.70;;;2.13;;
3081;SDS011;1551;51.046;7.010;2023-06-14T08:41:06;3.45;;;2.00;;
3081;SDS011;1551;51.046;7.010;2023-06-14T08:43:56;5.33;;;1.70;;
3081;SDS011;1551;51.046;7.010;2023-06-14T08:46:46;2.65;;;1.65;;
3081;SDS011;1551;51.046;7.010;2023-06-14T08:49:36;2.58;;;1.60;;
3081;SDS011;1551;51.046;7.010;2023-06-14T08:52:26;3.10;;;1.50;;
3081;SDS011;1551;51.046;7.010;2023-06-14T08:55:22;4.30;;;1.50;;
3081;SDS011;1551;51.046;7.010;2023-06-14T08:58:14;2.40;;;1.63;;
3081;SDS011;1551;51.046;7.010;2023-06-14T09:01:03;2.85;;;1.85;;
3081;SDS011;1551;51.046;7.010;2023-06-14T09:03:53;3.10;;;1.70;;
3081;SDS011;1551;51.046;7.010;2023-06-14T09:06:45;2.47;;;1.77;;
3081;SDS011;1551;51.046;7.010;2023-06-14T09:09:38;2.60;;;1.80;;
3081;SDS011;1551;51.046;7.010;2023-06-14T09:12:27;6.50;;;1.60;;
3081;SDS011;1551;51.046;7.010;2023-06-14T09:15:16;2.50;;;1.80;;
3081;SDS011;1551;51.046;7.010;2023-06-14T09:18:05;2.72;;;1.83;;
3081;SDS011;1551;51.046;7.010;2023-06-14T09:20:55;4.82;;;1.90;;
3081;SDS011;1551;51.046;7.010;2023-06-14T09:23:45;3.10;;;1.80;;
3081;SDS011;1551;51.046;7.010;2023-06-14T09:26:36;3.17;;;1.80;;
3081;SDS011;1551;51.046;7.010;2023-06-14T09:29:26;2.60;;;2.05;;
3081;SDS011;1551;51.046;7.010;2023-06-14T09:32:16;2.78;;;1.80;;
3081;SDS011;1551;51.046;7.010;2023-06-14T09:35:08;2.67;;;1.75;;
3081;SDS011;1551;51.046;7.010;2023-06-14T09:37:58;5.30;;;2.30;;
3081;SDS011;1551;51.046;7.010;2023-06-14T09:40:47;4.22;;;2.00;;
3081;SDS011;1551;51.046;7.010;2023-06-14T09:43:36;6.90;;;2.30;;
3081;SDS011;1551;51.046;7.010;2023-06-14T09:46:27;3.90;;;2.33;;
3081;SDS011;1551;51.046;7.010;2023-06-14T09:49:20;4.45;;;1.88;;
3081;SDS011;1551;51.046;7.010;2023-06-14T09:52:16;2.70;;;1.70;;
3081;SDS011;1551;51.046;7.010;2023-06-14T09:55:09;2.80;;;1.90;;
3081;SDS011;1551;51.046;7.010;2023-06-14T09:58:01;5.60;;;1.70;;
3081;SDS011;1551;51.046;7.010;2023-06-14T10:00:53;5.40;;;1.77;;
3081;SDS011;1551;51.046;7.010;2023-06-14T10:03:43;4.10;;;1.90;;
3081;SDS011;1551;51.046;7.010;2023-06-14T10:06:36;2.80;;;1.70;;
3081;SDS011;1551;51.046;7.010;2023-06-14T10:09:29;3.90;;;2.17;;
3081;SDS011;1551;51.046;7.010;2023-06-14T10:12:19;4.30;;;1.97;;
3081;SDS011;1551;51.046;7.010;2023-06-14T10:15:11;2.70;;;1.80;;
3081;SDS011;1551;51.046;7.010;2023-06-14T10:18:07;3.60;;;2.00;;
3081;SDS011;1551;51.046;7.010;2023-06-14T10:21:13;3.38;;;1.85;;
3081;SDS011;1551;51.046;7.010;2023-06-14T10:24:05;3.42;;;2.15;;
3081;SDS011;1551;51.046;7.010;2023-06-14T10:26:58;5.05;;;2.20;;
3081;SDS011;1551;51.046;7.010;2023-06-14T10:33:05;4.95;;;2.10;;
3081;SDS011;1551;51.046;7.010;2023-06-14T10:36:08;3.67;;;2.03;;
3081;SDS011;1551;51.046;7.010;2023-06-14T10:39:05;4.35;;;2.10;;
3081;SDS011;1551;51.046;7.010;2023-06-14T10:42:05;4.68;;;2.10;;
3081;SDS011;1551;51.046;7.010;2023-06-14T10:44:55;3.25;;;2.25;;
3081;SDS011;1551;51.046;7.010;2023-06-14T10:47:45;4.38;;;2.20;;
3081;SDS011;1551;51.046;7.010;2023-06-14T10:50:37;3.65;;;2.15;;
3081;SDS011;1551;51.046;7.010;2023-06-14T10:53:40;3.00;;;2.15;;
3081;SDS011;1551;51.046;7.010;2023-06-14T10:56:29;3.70;;;2.00;;
3081;SDS011;1551;51.046;7.010;2023-06-14T10:59:19;3.70;;;2.05;;
3081;SDS011;1551;51.046;7.010;2023-06-14T11:11:46;3.43;;;1.90;;
3081;SDS011;1551;51.046;7.010;2023-06-14T11:14:38;3.00;;;1.60;;
3081;SDS011;1551;51.046;7.010;2023-06-14T11:17:27;3.78;;;1.90;;
3081;SDS011;1551;51.046;7.010;2023-06-14T11:20:16;4.30;;;2.10;;
3081;SDS011;1551;51.046;7.010;2023-06-14T11:23:06;2.70;;;1.70;;
3081;SDS011;1551;51.046;7.010;2023-06-14T11:25:55;3.40;;;1.90;;
3081;SDS011;1551;51.046;7.010;2023-06-14T11:28:44;5.18;;;1.80;;
3081;SDS011;1551;51.046;7.010;2023-06-14T11:31:33;3.20;;;1.80;;
3081;SDS011;1551;51.046;7.010;2023-06-14T11:34:24;3.03;;;1.80;;
3081;SDS011;1551;51.046;7.010;2023-06-14T11:37:13;4.30;;;1.58;;
3081;SDS011;1551;51.046;7.010;2023-06-14T11:40:02;2.95;;;1.50;;
3081;SDS011;1551;51.046;7.010;2023-06-14T11:43:00;3.88;;;1.80;;
3081;SDS011;1551;51.046;7.010;2023-06-14T11:45:50;2.53;;;1.48;;
3081;SDS011;1551;51.046;7.010;2023-06-14T11:48:40;3.40;;;1.90;;
3081;SDS011;1551;51.046;7.010;2023-06-14T11:51:32;2.20;;;1.30;;
3081;SDS011;1551;51.046;7.010;2023-06-14T11:54:22;3.00;;;1.30;;
3081;SDS011;1551;51.046;7.010;2023-06-14T11:57:11;2.88;;;1.50;;
3081;SDS011;1551;51.046;7.010;2023-06-14T12:00:02;3.30;;;1.70;;
3081;SDS011;1551;51.046;7.010;2023-06-14T12:03:00;2.60;;;1.40;;
3081;SDS011;1551;51.046;7.010;2023-06-14T12:05:49;2.78;;;1.60;;
3081;SDS011;1551;51.046;7.010;2023-06-14T12:08:39;2.03;;;1.30;;
3081;SDS011;1551;51.046;7.010;2023-06-14T12:11:32;2.60;;;1.30;;
3081;SDS011;1551;51.046;7.010;2023-06-14T12:14:27;2.60;;;1.25;;
3081;SDS011;1551;51.046;7.010;2023-06-14T12:17:17;2.10;;;1.10;;
3081;SDS011;1551;51.046;7.010;2023-06-14T12:20:08;2.90;;;1.20;;
3081;SDS011;1551;51.046;7.010;2023-06-14T12:23:00;2.50;;;1.30;;
3081;SDS011;1551;51.046;7.010;2023-06-14T12:25:52;2.50;;;1.25;;
3081;SDS011;1551;51.046;7.010;2023-06-14T12:28:42;1.90;;;0.95;;
3081;SDS011;1551;51.046;7.010;2023-06-14T12:31:33;2.40;;;1.20;;
3081;SDS011;1551;51.046;7.010;2023-06-14T12:34:22;2.08;;;1.23;;
3081;SDS011;1551;51.046;7.010;2023-06-14T12:37:12;2.83;;;1.50;;
3081;SDS011;1551;51.046;7.010;2023-06-14T12:40:01;3.35;;;1.60;;
3081;SDS011;1551;51.046;7.010;2023-06-14T12:42:50;3.80;;;1.90;;
3081;SDS011;1551;51.046;7.010;2023-06-14T12:45:39;3.03;;;1.90;;
3081;SDS011;1551;51.046;7.010;2023-06-14T12:48:28;3.38;;;1.75;;
3081;SDS011;1551;51.046;7.010;2023-06-14T12:51:19;2.70;;;1.63;;
3081;SDS011;1551;51.046;7.010;2023-06-14T12:54:08;2.30;;;1.42;;
3081;SDS011;1551;51.046;7.010;2023-06-14T12:56:58;2.20;;;1.30;;
3081;SDS011;1551;51.046;7.010;2023-06-14T12:59:47;2.85;;;1.20;;
3081;SDS011;1551;51.046;7.010;2023-06-14T13:02:36;2.30;;;1.40;;
3081;SDS011;1551;51.046;7.010;2023-06-14T13:05:25;3.17;;;1.60;;
3081;SDS011;1551;51.046;7.010;2023-06-14T13:08:14;2.07;;;1.30;;
3081;SDS011;1551;51.046;7.010;2023-06-14T13:11:03;2.75;;;1.50;;
3081;SDS011;1551;51.046;7.010;2023-06-14T13:13:52;2.47;;;1.20;;
3081;SDS011;1551;51.046;7.010;2023-06-14T13:16:41;2.20;;;1.30;;
3081;SDS011;1551;51.046;7.010;2023-06-14T13:19:30;3.38;;;1.25;;
3081;SDS011;1551;51.046;7.010;2023-06-14T13:22:19;2.13;;;1.30;;
3081;SDS011;1551;51.046;7.010;2023-06-14T13:25:08;3.00;;;1.43;;
3081;SDS011;1551;51.046;7.010;2023-06-14T13:27:57;2.10;;;1.30;;
3081;SDS011;1551;51.046;7.010;2023-06-14T13:30:46;3.40;;;1.40;;
3081;SDS011;1551;51.046;7.010;2023-06-14T13:33:35;3.17;;;1.75;;
3081;SDS011;1551;51.046;7.010;2023-06-14T13:36:24;3.57;;;1.50;;
3081;SDS011;1551;51.046;7.010;2023-06-14T13:39:13;2.30;;;1.30;;
3081;SDS011;1551;51.046;7.010;2023-06-14T13:42:03;4.10;;;1.40;;
3081;SDS011;1551;51.046;7.010;2023-06-14T13:44:52;2.20;;;1.25;;
3081;SDS011;1551;51.046;7.010;2023-06-14T13:47:41;3.25;;;1.50;;
3081;SDS011;1551;51.046;7.010;2023-06-14T13:50:30;2.20;;;1.50;;
3081;SDS011;1551;51.046;7.010;2023-06-14T13:53:19;2.20;;;1.48;;
3081;SDS011;1551;51.046;7.010;2023-06-14T13:56:08;5.07;;;1.67;;
3081;SDS011;1551;51.046;7.010;2023-06-14T13:58:57;4.30;;;2.80;;
3081;SDS011;1551;51.046;7.010;2023-06-14T14:01:46;5.53;;;3.40;;
3081;SDS011;1551;51.046;7.010;2023-06-14T14:04:35;3.70;;;1.75;;
3081;SDS011;1551;51.046;7.010;2023-06-14T14:07:24;3.50;;;1.60;;
3081;SDS011;1551;51.046;7.010;2023-06-14T14:10:13;3.28;;;1.90;;
3081;SDS011;1551;51.046;7.010;2023-06-14T14:13:02;3.40;;;2.00;;
3081;SDS011;1551;51.046;7.010;2023-06-14T14:15:51;2.40;;;1.60;;
3081;SDS011;1551;51.046;7.010;2023-06-14T14:18:41;3.13;;;1.67;;
3081;SDS011;1551;51.046;7.010;2023-06-14T14:21:30;3.78;;;1.70;;
3081;SDS011;1551;51.046;7.010;2023-06-14T14:24:19;3.20;;;2.03;;
3081;SDS011;1551;51.046;7.010;2023-06-14T14:27:07;3.30;;;1.80;;
3081;SDS011;1551;51.046;7.010;2023-06-14T14:29:56;4.90;;;1.90;;
3081;SDS011;1551;51.046;7.010;2023-06-14T14:32:45;3.10;;;1.75;;
3081;SDS011;1551;51.046;7.010;2023-06-14T14:35:35;3.17;;;1.73;;
3081;SDS011;1551;51.046;7.010;2023-06-14T14:38:24;3.85;;;1.90;;
3081;SDS011;1551;51.046;7.010;2023-06-14T14:41:13;4.25;;;2.10;;
3081;SDS011;1551;51.046;7.010;2023-06-14T14:44:04;3.05;;;1.90;;
3081;SDS011;1551;51.046;7.010;2023-06-14T14:46:53;3.10;;;1.88;;
3081;SDS011;1551;51.046;7.010;2023-06-14T14:49:43;3.35;;;1.80;;
3081;SDS011;1551;51.046;7.010;2023-06-14T14:52:32;3.47;;;2.20;;
3081;SDS011;1551;51.046;7.010;2023-06-14T14:55:21;2.78;;;1.70;;
3081;SDS011;1551;51.046;7.010;2023-06-14T14:58:11;3.20;;;1.70;;
3081;SDS011;1551;51.046;7.010;2023-06-14T15:01:01;2.58;;;1.85;;
3081;SDS011;1551;51.046;7.010;2023-06-14T15:03:50;3.10;;;1.90;;
3081;SDS011;1551;51.046;7.010;2023-06-14T15:06:39;2.97;;;2.20;;
3081;SDS011;1551;51.046;7.010;2023-06-14T15:09:28;3.10;;;1.88;;
3081;SDS011;1551;51.046;7.010;2023-06-14T15:12:17;2.90;;;1.80;;
3081;SDS011;1551;51.046;7.010;2023-06-14T15:15:06;3.95;;;1.88;;
3081;SDS011;1551;51.046;7.010;2023-06-14T15:17:55;2.90;;;1.60;;
3081;SDS011;1551;51.046;7.010;2023-06-14T15:20:44;2.88;;;1.92;;
3081;SDS011;1551;51.046;7.010;2023-06-14T15:23:33;2.25;;;1.60;;
3081;SDS011;1551;51.046;7.010;2023-06-14T15:26:22;5.15;;;2.00;;
3081;SDS011;1551;51.046;7.010;2023-06-14T15:29:12;3.90;;;1.90;;
3081;SDS011;1551;51.046;7.010;2023-06-14T15:32:02;4.00;;;1.77;;
3081;SDS011;1551;51.046;7.010;2023-06-14T15:34:50;3.10;;;1.80;;
3081;SDS011;1551;51.046;7.010;2023-06-14T15:37:40;2.40;;;1.70;;
3081;SDS011;1551;51.046;7.010;2023-06-14T15:40:29;3.85;;;1.88;;
3081;SDS011;1551;51.046;7.010;2023-06-14T15:43:18;4.45;;;2.00;;
3081;SDS011;1551;51.046;7.010;2023-06-14T15:46:07;3.17;;;2.00;;
3081;SDS011;1551;51.046;7.010;2023-06-14T15:48:56;2.70;;;2.00;;
3081;SDS011;1551;51.046;7.010;2023-06-14T15:51:45;3.70;;;1.92;;
3081;SDS011;1551;51.046;7.010;2023-06-14T15:54:33;3.70;;;1.90;;
3081;SDS011;1551;51.046;7.010;2023-06-14T15:57:22;3.13;;;2.10;;
3081;SDS011;1551;51.046;7.010;2023-06-14T16:00:11;2.97;;;1.90;;
3081;SDS011;1551;51.046;7.010;2023-06-14T16:03:01;2.60;;;1.90;;
3081;SDS011;1551;51.046;7.010;2023-06-14T16:05:50;3.80;;;2.72;;
3081;SDS011;1551;51.046;7.010;2023-06-14T16:08:39;2.63;;;1.88;;
3081;SDS011;1551;51.046;7.010;2023-06-14T16:11:27;2.60;;;1.80;;
3081;SDS011;1551;51.046;7.010;2023-06-14T16:14:16;3.08;;;1.95;;
3081;SDS011;1551;51.046;7.010;2023-06-14T16:17:05;3.72;;;1.80;;
3081;SDS011;1551;51.046;7.010;2023-06-14T16:19:54;4.00;;;3.10;;
3081;SDS011;1551;51.046;7.010;2023-06-14T16:22:43;2.53;;;1.63;;
3081;SDS011;1551;51.046;7.010;2023-06-14T16:25:32;3.05;;;2.30;;
3081;SDS011;1551;51.046;7.010;2023-06-14T16:28:22;4.90;;;2.13;;
3081;SDS011;1551;51.046;7.010;2023-06-14T16:31:14;2.83;;;2.10;;
3081;SDS011;1551;51.046;7.010;2023-06-14T16:34:04;3.60;;;1.90;;
3081;SDS011;1551;51.046;7.010;2023-06-14T16:36:56;4.70;;;3.88;;
3081;SDS011;1551;51.046;7.010;2023-06-14T16:39:45;5.68;;;1.90;;
3081;SDS011;1551;51.046;7.010;2023-06-14T16:42:35;3.60;;;1.90;;
3081;SDS011;1551;51.046;7.010;2023-06-14T16:45:24;3.40;;;2.50;;
3081;SDS011;1551;51.046;7.010;2023-06-14T16:48:16;2.78;;;2.00;;
3081;SDS011;1551;51.046;7.010;2023-06-14T16:51:05;3.63;;;2.35;;
3081;SDS011;1551;51.046;7.010;2023-06-14T16:53:54;4.70;;;2.10;;
3081;SDS011;1551;51.046;7.010;2023-06-14T16:56:44;4.32;;;2.00;;
3081;SDS011;1551;51.046;7.010;2023-06-14T16:59:33;3.10;;;1.90;;
3081;SDS011;1551;51.046;7.010;2023-06-14T17:02:22;3.42;;;2.10;;
3081;SDS011;1551;51.046;7.010;2023-06-14T17:05:11;3.00;;;2.40;;
3081;SDS011;1551;51.046;7.010;2023-06-14T17:08:00;2.95;;;2.13;;
3081;SDS011;1551;51.046;7.010;2023-06-14T17:10:53;5.07;;;2.17;;
3081;SDS011;1551;51.046;7.010;2023-06-14T17:13:44;5.50;;;2.20;;
3081;SDS011;1551;51.046;7.010;2023-06-14T17:16:33;2.70;;;1.90;;
3081;SDS011;1551;51.046;7.010;2023-06-14T17:19:22;2.90;;;2.10;;
3081;SDS011;1551;51.046;7.010;2023-06-14T17:22:11;3.50;;;2.30;;
3081;SDS011;1551;51.046;7.010;2023-06-14T17:25:00;3.63;;;2.38;;
3081;SDS011;1551;51.046;7.010;2023-06-14T17:27:49;2.70;;;2.00;;
3081;SDS011;1551;51.046;7.010;2023-06-14T17:30:38;2.45;;;1.90;;
3081;SDS011;1551;51.046;7.010;2023-06-14T17:33:27;3.10;;;2.05;;
3081;SDS011;1551;51.046;7.010;2023-06-14T17:36:16;3.63;;;2.20;;
3081;SDS011;1551;51.046;7.010;2023-06-14T17:39:05;3.60;;;2.15;;
3081;SDS011;1551;51.046;7.010;2023-06-14T17:41:54;3.30;;;2.40;;
3081;SDS011;1551;51.046;7.010;2023-06-14T17:44:43;3.17;;;2.40;;
3081;SDS011;1551;51.046;7.010;2023-06-14T17:47:33;3.70;;;2.35;;
3081;SDS011;1551;51.046;7.010;2023-06-14T17:50:22;3.00;;;2.45;;
3081;SDS011;1551;51.046;7.010;2023-06-14T17:53:11;4.20;;;2.35;;
3081;SDS011;1551;51.046;7.010;2023-06-14T17:56:01;3.10;;;2.47;;